Hauptseite
METAR-TAF:

METAR-TAF

Flughäfen :

N’Djamena, Tschad

Flughafen N’Djamena

Breite: 12-08N, Länge: 015-02E, Höhe: 295 m

Beobachtung

Neuester Wetterbericht von vor 25 Minuten, um 18:00 UTC
Wind 2 kt aus Nord/Nordost
Temperatur 37°C
Luftfeuchtigkeit 11%
Luftdruck 1004 hPa
Sichtweite: 6000 m

METAR: FTTJ 221800Z 03002KT 6000 NSC 37/02 Q1004 NOSIG

Zeit: 19:25 (18:25 UTC)

Prognose

Neuester Wetterbericht von vor 1 Stunde und 25 Minuten, um 17:00 UTC
Gültige Prognose vom 22 um 18 UTC bis 23 um 24 UTC
Wind 6 kt aus unterschiedlichen Richtungen
Sichtweite: 8000 m

TAF: FTTJ 221700Z 2218/2324 VRB06KT 8000 NSC

Wetterbeobachtungen und Prognosen von mehr als 4000 Flughäfen (METAR und TAF Bericht).

Die verfügbaren Stationen werden durch gelbe und rote Markierungen auf der Karte dargestellt.

Führen Sie die Maus auf sie, um den Namen der Station zu sehen.

Darauf klicken, um die Beobachtung von Wetterbeobachtungen und Prognosen zu sehen.

Um die Karte zu ändern : klicken Sie auf den grünen Tasten mit einem schwarzen Kreuz Zum Vergrößern, auf den grünen Button mit einem Gedankenstrich zu verkleinern, oder auf die grünen Pfeile für benachbarte Karten.


METAR-TAF: